Terminal Aerodrome Forecast
Issued by NWS

Home | Current Version | Previous Version | Text Only | Print | Product List | Glossary On
Versions: 1 2 3 4 5 6 7 8 9 10 11 12
970
FTUS42 TJSJ 100544
TAFKPK
TAF
TKPK 100544Z 1006/1106 08010KT P6SM VCSH SCT020 SCT040
     FM101300 10015KT P6SM FEW020 SCT040
     FM102300 09009KT P6SM FEW022
      AMD NOT SKED TIL 101100=

USA.gov is the U.S. government's official web portal to all federal, state and local government web resources and services.